createdAt,value
2023-12-31T00:00:30.565Z,13.25
2023-12-31T00:03:32.251Z,12.43
2023-12-31T00:06:33.874Z,13.15
2023-12-31T00:09:35.509Z,13.32
2023-12-31T00:12:38.116Z,14.30
2023-12-31T00:15:39.796Z,12.43
2023-12-31T00:18:42.214Z,14.00
2023-12-31T00:21:44.679Z,13.25
2023-12-31T00:24:46.330Z,12.60
2023-12-31T00:27:48.343Z,13.73
2023-12-31T00:30:50.493Z,12.35
2023-12-31T00:33:57.864Z,12.85
2023-12-31T00:37:00.022Z,12.57
2023-12-31T00:40:01.712Z,12.77
2023-12-31T00:43:03.703Z,13.88
2023-12-31T00:46:06.232Z,13.32
2023-12-31T00:49:08.294Z,13.23
2023-12-31T00:52:10.403Z,11.32
2023-12-31T00:55:12.112Z,13.43
2023-12-31T00:58:14.916Z,12.53
2023-12-31T01:01:17.066Z,12.32
2023-12-31T01:04:19.184Z,14.95
2023-12-31T01:07:20.921Z,14.07
2023-12-31T01:10:23.132Z,11.77
2023-12-31T01:13:25.218Z,13.00
2023-12-31T01:16:28.548Z,13.43
2023-12-31T01:19:30.930Z,11.30
2023-12-31T01:22:33.014Z,12.75
2023-12-31T01:25:34.762Z,12.65
2023-12-31T01:28:36.431Z,10.87
2023-12-31T01:31:38.852Z,10.55
2023-12-31T01:34:41.044Z,14.75
2023-12-31T01:37:43.102Z,11.32
2023-12-31T01:40:54.782Z,13.20
2023-12-31T01:44:04.544Z,9.50
2023-12-31T01:47:06.823Z,11.85
2023-12-31T01:50:09.248Z,10.63
2023-12-31T01:53:12.758Z,10.80
2023-12-31T01:56:14.993Z,10.32
2023-12-31T01:59:17.650Z,10.27
2023-12-31T02:02:22.576Z,10.57
2023-12-31T02:05:25.515Z,9.57
2023-12-31T02:08:27.754Z,10.75
2023-12-31T02:11:29.493Z,11.00
2023-12-31T02:14:31.119Z,10.93
2023-12-31T02:17:33.257Z,9.60
2023-12-31T02:20:35.487Z,11.37
2023-12-31T02:23:38.074Z,11.25
2023-12-31T02:26:41.155Z,10.13
2023-12-31T02:29:43.033Z,9.43
2023-12-31T02:32:44.750Z,10.32
2023-12-31T02:35:46.818Z,11.88
2023-12-31T02:38:50.963Z,11.27
2023-12-31T02:41:52.963Z,10.88
2023-12-31T02:44:55.184Z,10.32
2023-12-31T02:47:57.356Z,11.38
2023-12-31T02:50:59.432Z,10.77
2023-12-31T02:54:02.083Z,9.93
2023-12-31T02:57:09.592Z,12.10
2023-12-31T03:00:11.941Z,9.47
2023-12-31T03:03:13.665Z,9.43
2023-12-31T03:06:17.206Z,9.38
2023-12-31T03:09:21.841Z,9.98
2023-12-31T03:12:24.322Z,9.73
2023-12-31T03:15:26.368Z,10.07
2023-12-31T03:18:28.400Z,10.32
2023-12-31T03:21:30.525Z,9.67
2023-12-31T03:24:32.148Z,9.68
2023-12-31T03:27:34.181Z,8.00
2023-12-31T03:30:35.840Z,9.80
2023-12-31T03:33:38.038Z,8.13
2023-12-31T03:36:40.147Z,8.55
2023-12-31T03:39:42.421Z,10.50
2023-12-31T03:42:44.207Z,9.48
2023-12-31T03:45:46.975Z,9.38
2023-12-31T03:48:49.074Z,8.80
2023-12-31T03:51:51.722Z,8.30
2023-12-31T03:54:53.357Z,8.68
2023-12-31T03:57:55.421Z,12.18
2023-12-31T04:00:57.504Z,9.07
2023-12-31T04:03:59.820Z,7.72
2023-12-31T04:07:01.984Z,8.75
2023-12-31T04:10:04.190Z,10.32
2023-12-31T04:13:06.568Z,7.82
2023-12-31T04:16:11.978Z,8.13
2023-12-31T04:19:16.152Z,6.97
2023-12-31T04:22:18.912Z,8.40
2023-12-31T04:25:21.117Z,8.20
2023-12-31T04:28:22.816Z,6.53
2023-12-31T04:31:24.948Z,7.93
2023-12-31T04:34:26.632Z,8.73
2023-12-31T04:37:28.649Z,9.20
2023-12-31T04:40:30.661Z,9.10
2023-12-31T04:43:32.399Z,9.25
2023-12-31T04:46:34.486Z,7.90
2023-12-31T04:49:36.261Z,8.50
2023-12-31T04:52:38.457Z,7.80
2023-12-31T04:55:41.069Z,7.38
2023-12-31T04:58:42.749Z,7.97
2023-12-31T05:01:44.905Z,8.23
2023-12-31T05:04:47.016Z,9.55
2023-12-31T05:07:49.415Z,8.68
2023-12-31T05:10:51.166Z,9.32
2023-12-31T05:13:54.421Z,7.38
2023-12-31T05:16:56.530Z,9.25
2023-12-31T05:19:58.601Z,7.68
2023-12-31T05:23:00.819Z,8.13
2023-12-31T05:26:02.927Z,7.55
2023-12-31T05:29:05.248Z,8.07
2023-12-31T05:32:07.512Z,8.33
2023-12-31T05:35:10.334Z,11.73
2023-12-31T05:38:12.026Z,8.43
2023-12-31T05:41:14.416Z,11.15
2023-12-31T05:44:16.080Z,7.60
2023-12-31T05:47:44.345Z,7.13
2023-12-31T05:50:40.671Z,7.55
2023-12-31T05:53:42.782Z,8.40
2023-12-31T05:56:44.791Z,7.95
2023-12-31T05:59:46.498Z,6.38
2023-12-31T06:02:48.141Z,7.50
2023-12-31T06:05:50.922Z,7.18
2023-12-31T06:08:52.640Z,8.35
2023-12-31T06:11:55.444Z,9.13
2023-12-31T06:14:57.051Z,8.73
2023-12-31T06:17:59.246Z,7.57
2023-12-31T06:21:01.352Z,6.82
2023-12-31T06:24:03.527Z,6.97
2023-12-31T06:27:05.985Z,9.23
2023-12-31T06:30:08.496Z,6.75
2023-12-31T06:33:10.321Z,8.13
2023-12-31T06:36:12.131Z,7.35
2023-12-31T06:39:14.608Z,7.75
2023-12-31T06:42:16.293Z,7.20
2023-12-31T06:45:18.770Z,7.57
2023-12-31T06:48:20.955Z,7.97
2023-12-31T06:51:22.861Z,8.13
2023-12-31T06:54:24.922Z,8.80
2023-12-31T06:57:26.939Z,6.85
2023-12-31T07:00:28.991Z,9.13
2023-12-31T07:03:30.646Z,7.17
2023-12-31T07:06:32.688Z,7.00
2023-12-31T07:09:34.447Z,7.10
2023-12-31T07:12:36.125Z,8.32
2023-12-31T07:15:38.399Z,7.03
2023-12-31T07:18:40.119Z,9.15
2023-12-31T07:21:41.818Z,8.77
2023-12-31T07:24:43.432Z,7.87
2023-12-31T07:27:45.475Z,10.90
2023-12-31T07:30:48.395Z,14.07
2023-12-31T07:33:51.546Z,12.90
2023-12-31T07:36:53.183Z,14.30
2023-12-31T07:39:54.856Z,12.88
2023-12-31T07:42:57.282Z,15.23
2023-12-31T07:45:59.871Z,13.48
2023-12-31T07:49:01.565Z,13.43
2023-12-31T07:52:03.928Z,14.40
2023-12-31T07:55:10.154Z,14.67
2023-12-31T07:58:11.919Z,11.57
2023-12-31T08:01:13.724Z,12.35
2023-12-31T08:04:15.648Z,13.33
2023-12-31T08:07:18.309Z,14.32
2023-12-31T08:10:20.358Z,12.23
2023-12-31T08:13:22.903Z,10.15
2023-12-31T08:16:24.607Z,9.57
2023-12-31T08:19:26.733Z,12.77
2023-12-31T08:22:28.519Z,11.35
2023-12-31T08:25:30.189Z,15.87
2023-12-31T08:28:32.096Z,16.02
2023-12-31T08:31:33.763Z,14.30
2023-12-31T08:34:35.511Z,17.57
2023-12-31T08:37:38.093Z,16.25
2023-12-31T08:40:40.265Z,15.75
2023-12-31T08:43:42.429Z,13.75
2023-12-31T08:46:44.208Z,13.60
2023-12-31T08:49:46.343Z,13.80
2023-12-31T08:52:48.300Z,13.75
2023-12-31T08:55:52.167Z,15.13
2023-12-31T08:58:53.964Z,15.68
2023-12-31T09:01:56.811Z,18.48
2023-12-31T09:04:58.957Z,15.77
2023-12-31T09:08:03.350Z,15.38
2023-12-31T09:11:06.115Z,12.93
2023-12-31T09:14:08.145Z,14.38
2023-12-31T09:17:10.285Z,13.75
2023-12-31T09:20:12.177Z,15.40
2023-12-31T09:23:14.724Z,14.98
2023-12-31T09:26:16.450Z,10.70
2023-12-31T09:29:18.935Z,11.90
2023-12-31T09:32:21.050Z,13.48
2023-12-31T09:35:23.143Z,16.93
2023-12-31T09:38:25.149Z,16.27
2023-12-31T09:41:28.054Z,15.13
2023-12-31T09:44:30.363Z,15.52
2023-12-31T09:47:33.301Z,13.00
2023-12-31T09:50:35.331Z,13.43
2023-12-31T09:53:40.375Z,12.68
2023-12-31T09:56:44.108Z,13.80
2023-12-31T09:59:49.673Z,13.27
2023-12-31T10:02:54.697Z,14.63
2023-12-31T10:05:58.188Z,12.03
2023-12-31T10:09:01.243Z,12.18
2023-12-31T10:12:02.894Z,9.30
2023-12-31T10:15:05.503Z,10.88
2023-12-31T10:18:09.371Z,10.55
2023-12-31T10:21:12.643Z,10.70
2023-12-31T10:24:14.795Z,10.40
2023-12-31T10:27:17.347Z,13.03
2023-12-31T10:30:20.211Z,17.00
2023-12-31T10:33:30.181Z,16.30
2023-12-31T10:36:34.632Z,18.00
2023-12-31T10:39:38.004Z,18.42
2023-12-31T10:42:40.581Z,12.85
2023-12-31T10:45:42.742Z,11.05
2023-12-31T10:49:04.871Z,10.57
2023-12-31T10:52:07.184Z,10.23
2023-12-31T10:55:13.912Z,10.25
2023-12-31T10:58:17.650Z,9.40
2023-12-31T11:01:19.769Z,9.95
2023-12-31T11:04:22.972Z,9.63
2023-12-31T11:07:28.210Z,11.10
2023-12-31T11:10:31.243Z,9.73
2023-12-31T11:13:34.682Z,9.25
2023-12-31T11:17:04.533Z,12.60
2023-12-31T11:20:41.881Z,10.25
2023-12-31T11:24:00.509Z,12.55
2023-12-31T11:27:32.318Z,13.13
2023-12-31T11:30:54.379Z,11.63
2023-12-31T11:33:56.577Z,11.02
2023-12-31T11:37:01.824Z,14.23
2023-12-31T11:40:05.934Z,10.47
2023-12-31T11:43:14.832Z,10.35
2023-12-31T11:46:39.721Z,10.68
2023-12-31T11:50:14.912Z,12.98
2023-12-31T11:53:17.327Z,10.90
2023-12-31T11:56:31.816Z,9.10
2023-12-31T11:59:37.660Z,14.32
2023-12-31T12:02:39.379Z,14.70
2023-12-31T12:05:41.129Z,17.95
2023-12-31T12:08:43.239Z,11.13
2023-12-31T12:11:45.300Z,10.37
2023-12-31T12:14:50.604Z,10.93
2023-12-31T12:17:53.475Z,9.80
2023-12-31T12:20:56.792Z,10.43
2023-12-31T12:23:58.571Z,10.85
2023-12-31T12:27:05.667Z,7.10
2023-12-31T12:30:10.313Z,10.05
2023-12-31T12:33:15.937Z,7.43
2023-12-31T12:36:19.182Z,7.35
2023-12-31T12:39:21.763Z,7.72
2023-12-31T12:42:27.365Z,9.27
2023-12-31T12:45:34.074Z,10.35
2023-12-31T12:48:41.581Z,8.32
2023-12-31T12:51:45.430Z,11.95
2023-12-31T12:54:47.065Z,7.97
2023-12-31T12:57:49.324Z,9.20
2023-12-31T13:00:50.963Z,9.02
2023-12-31T13:03:53.436Z,12.87
2023-12-31T13:06:59.088Z,8.68
2023-12-31T13:10:01.513Z,7.93
2023-12-31T13:13:04.708Z,7.27
2023-12-31T13:16:13.136Z,8.25
2023-12-31T13:19:21.471Z,8.18
2023-12-31T13:22:23.323Z,7.80
2023-12-31T13:25:25.619Z,8.30
2023-12-31T13:28:28.892Z,7.38
2023-12-31T13:31:31.078Z,5.93
2023-12-31T13:34:32.699Z,8.63
2023-12-31T13:37:34.766Z,6.15
2023-12-31T13:40:36.925Z,6.63
2023-12-31T13:43:39.047Z,7.77
2023-12-31T13:46:41.141Z,7.28
2023-12-31T13:49:42.836Z,8.88
2023-12-31T13:52:53.047Z,8.07
2023-12-31T13:55:55.173Z,7.80
2023-12-31T13:58:58.758Z,9.77
2023-12-31T14:02:00.622Z,12.85
2023-12-31T14:05:02.377Z,35.20
2023-12-31T14:08:04.517Z,35.75
2023-12-31T14:11:07.420Z,15.02
2023-12-31T14:14:10.685Z,10.73
2023-12-31T14:17:12.575Z,9.07
2023-12-31T14:20:14.378Z,11.70
2023-12-31T14:23:16.743Z,8.40
2023-12-31T14:26:18.824Z,8.75
2023-12-31T14:29:20.480Z,7.50
2023-12-31T14:32:22.337Z,35.10
2023-12-31T14:35:24.922Z,7.47
2023-12-31T14:38:27.012Z,7.63
2023-12-31T14:41:28.747Z,7.22
2023-12-31T14:44:30.874Z,6.40
2023-12-31T14:47:32.588Z,8.23
2023-12-31T14:50:36.025Z,8.35
2023-12-31T14:53:38.127Z,9.85
2023-12-31T14:56:40.206Z,11.88
2023-12-31T14:59:42.291Z,7.00
2023-12-31T15:02:44.354Z,8.88
2023-12-31T15:05:46.454Z,7.30
2023-12-31T15:08:54.141Z,7.00
2023-12-31T15:11:55.832Z,7.47
2023-12-31T15:14:58.347Z,10.83
2023-12-31T15:18:00.192Z,10.52
2023-12-31T15:21:01.972Z,8.48
2023-12-31T15:24:04.925Z,8.75
2023-12-31T15:27:07.613Z,7.80
2023-12-31T15:30:10.543Z,9.80
2023-12-31T15:33:12.427Z,7.63
2023-12-31T15:36:16.989Z,7.90
2023-12-31T15:39:20.500Z,6.38
2023-12-31T15:42:23.498Z,10.25
2023-12-31T15:45:26.551Z,7.50
2023-12-31T15:48:28.338Z,7.30
2023-12-31T15:51:30.232Z,6.07
2023-12-31T15:54:32.556Z,7.50
2023-12-31T15:57:34.175Z,7.30
2023-12-31T16:00:36.389Z,6.68
2023-12-31T16:03:38.143Z,9.13
2023-12-31T16:06:40.190Z,10.73
2023-12-31T16:09:42.315Z,9.85
2023-12-31T16:12:44.350Z,10.98
2023-12-31T16:15:45.984Z,9.37
2023-12-31T16:18:48.048Z,8.02
2023-12-31T16:21:49.870Z,6.53
2023-12-31T16:24:52.022Z,5.63
2023-12-31T16:27:54.024Z,6.75
2023-12-31T16:30:56.235Z,5.53
2023-12-31T16:33:59.060Z,6.03
2023-12-31T16:37:01.152Z,3.97
2023-12-31T16:40:03.701Z,6.35
2023-12-31T16:43:09.528Z,5.22
2023-12-31T16:46:11.526Z,3.53
2023-12-31T16:49:13.275Z,6.78
2023-12-31T16:52:14.991Z,4.28
2023-12-31T16:55:17.203Z,5.32
2023-12-31T16:58:19.383Z,4.68
2023-12-31T17:01:21.996Z,4.22
2023-12-31T17:04:23.812Z,4.03
2023-12-31T17:07:25.493Z,3.77
2023-12-31T17:10:27.591Z,6.32
2023-12-31T17:13:29.746Z,5.78
2023-12-31T17:16:31.426Z,5.43
2023-12-31T17:19:33.132Z,6.20
2023-12-31T17:22:36.439Z,5.03
2023-12-31T17:25:38.523Z,4.07
2023-12-31T17:28:40.556Z,4.13
2023-12-31T17:31:42.712Z,3.47
2023-12-31T17:34:44.399Z,4.80
2023-12-31T17:37:46.683Z,5.40
2023-12-31T17:40:50.471Z,5.18
2023-12-31T17:43:52.254Z,6.25
2023-12-31T17:46:54.372Z,5.33
2023-12-31T17:49:56.111Z,5.25
2023-12-31T17:52:59.706Z,5.72
2023-12-31T17:56:02.132Z,4.40
2023-12-31T17:59:04.032Z,5.55
2023-12-31T18:02:05.802Z,7.65
2023-12-31T18:05:07.885Z,16.30
2023-12-31T18:08:10.101Z,17.00
2023-12-31T18:11:11.782Z,7.65
2023-12-31T18:14:13.418Z,9.00
2023-12-31T18:17:16.057Z,7.87
2023-12-31T18:20:18.281Z,7.47
2023-12-31T18:23:20.475Z,6.72
2023-12-31T18:26:24.043Z,5.32
2023-12-31T18:29:26.172Z,7.03
2023-12-31T18:32:28.037Z,7.57
2023-12-31T18:35:29.755Z,6.68
2023-12-31T18:38:31.409Z,6.70
2023-12-31T18:41:33.044Z,5.70
2023-12-31T18:44:35.582Z,5.50
2023-12-31T18:47:37.282Z,6.60
2023-12-31T18:50:39.402Z,6.15
2023-12-31T18:53:41.083Z,4.75
2023-12-31T18:56:43.958Z,5.13
2023-12-31T18:59:45.985Z,7.05
2023-12-31T19:02:47.661Z,5.85
2023-12-31T19:05:49.770Z,6.15
2023-12-31T19:08:51.875Z,7.93
2023-12-31T19:11:53.960Z,7.22
2023-12-31T19:15:00.850Z,6.82
2023-12-31T19:18:05.610Z,9.27
2023-12-31T19:21:07.521Z,7.68
2023-12-31T19:24:09.240Z,7.72
2023-12-31T19:27:10.885Z,8.13
2023-12-31T19:30:12.892Z,8.18
2023-12-31T19:33:15.204Z,9.13
2023-12-31T19:36:17.384Z,9.70
2023-12-31T19:39:19.493Z,7.93
2023-12-31T19:42:21.184Z,9.05
2023-12-31T19:45:24.455Z,6.68
2023-12-31T19:48:27.566Z,9.73
2023-12-31T19:51:30.218Z,9.88
2023-12-31T19:54:31.935Z,5.45
2023-12-31T19:57:33.725Z,7.45
2023-12-31T20:00:36.470Z,5.45
2023-12-31T20:03:46.125Z,5.80
2023-12-31T20:06:48.285Z,6.53
2023-12-31T20:09:52.809Z,5.93
2023-12-31T20:12:54.462Z,7.00
2023-12-31T20:15:57.898Z,6.95
2023-12-31T20:18:59.576Z,7.40
2023-12-31T20:22:01.711Z,6.45
2023-12-31T20:25:04.903Z,6.90
2023-12-31T20:28:07.248Z,6.63
2023-12-31T20:31:08.871Z,7.05
2023-12-31T20:34:10.845Z,8.32
2023-12-31T20:37:13.049Z,7.75
2023-12-31T20:40:15.087Z,7.43
2023-12-31T20:43:17.295Z,9.25
2023-12-31T20:46:19.957Z,9.57
2023-12-31T20:49:22.046Z,8.87
2023-12-31T20:52:24.169Z,9.52
2023-12-31T20:55:27.795Z,10.60
2023-12-31T20:58:29.524Z,8.88
2023-12-31T21:01:32.322Z,11.77
2023-12-31T21:04:35.431Z,9.90
2023-12-31T21:07:38.191Z,12.07
2023-12-31T21:10:39.920Z,11.13
2023-12-31T21:13:42.565Z,9.32
2023-12-31T21:16:45.619Z,7.97
2023-12-31T21:19:47.970Z,7.03
2023-12-31T21:22:50.103Z,9.98
2023-12-31T21:25:52.011Z,9.40
2023-12-31T21:28:56.163Z,9.32
2023-12-31T21:31:58.886Z,8.32
2023-12-31T21:35:00.589Z,9.10
2023-12-31T21:38:02.404Z,7.43
2023-12-31T21:41:04.266Z,8.17
2023-12-31T21:44:12.852Z,6.68
2023-12-31T21:47:15.753Z,8.38
2023-12-31T21:50:18.385Z,8.27
2023-12-31T21:53:20.558Z,7.20
2023-12-31T21:56:46.877Z,7.63
2023-12-31T21:59:49.036Z,7.07
2023-12-31T22:02:52.404Z,6.57
2023-12-31T22:05:54.134Z,6.00
2023-12-31T22:08:55.761Z,7.50
2023-12-31T22:11:58.810Z,7.13
2023-12-31T22:15:01.294Z,9.73
2023-12-31T22:18:03.820Z,7.85
2023-12-31T22:21:05.651Z,12.70
2023-12-31T22:24:07.850Z,12.32
2023-12-31T22:27:10.290Z,12.35
2023-12-31T22:30:13.363Z,12.10
2023-12-31T22:33:15.790Z,11.13
2023-12-31T22:36:18.749Z,13.02
2023-12-31T22:39:21.335Z,11.20
2023-12-31T22:42:22.936Z,11.77
2023-12-31T22:45:25.032Z,10.93
2023-12-31T22:48:27.185Z,10.63
2023-12-31T22:51:28.853Z,10.20
2023-12-31T22:54:30.443Z,7.88
2023-12-31T22:57:32.348Z,8.27
2023-12-31T23:00:34.050Z,12.88
2023-12-31T23:03:36.115Z,58.00
2023-12-31T23:06:38.203Z,125.57
2023-12-31T23:09:39.866Z,152.70
2023-12-31T23:12:42.415Z,163.70
2023-12-31T23:15:45.506Z,225.07
2023-12-31T23:18:48.436Z,330.33
2023-12-31T23:21:50.123Z,333.80
2023-12-31T23:24:52.592Z,247.25
2023-12-31T23:27:54.211Z,178.50
2023-12-31T23:30:56.086Z,173.80
2023-12-31T23:33:58.203Z,128.55
2023-12-31T23:37:05.629Z,104.32
2023-12-31T23:40:10.122Z,58.63
2023-12-31T23:43:11.862Z,51.13
2023-12-31T23:46:13.539Z,36.05
2023-12-31T23:49:15.233Z,32.90
2023-12-31T23:52:17.773Z,30.73
2023-12-31T23:55:20.780Z,24.83
2023-12-31T23:58:23.996Z,20.63
